Time;durP1;ratioP1;P1;durP2;ratioP2;P2;SDS_P1;SDS_P2;PMS_P1;PMS_P2;Temp;Humidity;BMP_temperature;BMP_pressure;BME280_temperature;BME280_humidity;BME280_pressure;Samples;Min_cycle;Max_cycle;Signal;HPM_P1;HPM_P2
2022/08/05 00:01:42;;;;;;;22.20;15.38;;;;;;;15.81;100.00;101252.66;10399762;28;20065;-77
2022/08/05 00:06:43;;;;;;;22.77;15.20;;;;;;;15.70;100.00;101246.13;10397577;28;20160;-78
2022/08/05 00:11:43;;;;;;;21.75;14.25;;;;;;;15.61;100.00;101246.75;10358379;28;20134;-78
2022/08/05 00:16:44;;;;;;;24.38;14.43;;;;;;;15.58;100.00;101249.28;10359903;28;20034;-77
2022/08/05 00:21:45;;;;;;;26.08;17.73;;;;;;;15.66;100.00;101242.50;10398533;28;20053;-77
2022/08/05 00:26:45;;;;;;;22.85;15.60;;;;;;;15.69;100.00;101245.25;10422051;28;20099;-77
2022/08/05 00:31:46;;;;;;;23.50;16.55;;;;;;;15.63;100.00;101242.41;10422206;28;20037;-77
2022/08/05 00:36:46;;;;;;;32.03;17.15;;;;;;;15.68;100.00;101224.97;10431251;28;20043;-77
2022/08/05 00:41:47;;;;;;;29.15;15.98;;;;;;;15.65;100.00;101238.06;10414605;28;20495;-77
2022/08/05 00:46:48;;;;;;;27.67;17.13;;;;;;;15.73;100.00;101240.06;10414828;28;20430;-76
2022/08/05 00:51:48;;;;;;;29.33;18.55;;;;;;;15.65;100.00;101243.34;10423341;28;20057;-77
2022/08/05 00:56:49;;;;;;;27.45;19.38;;;;;;;15.75;100.00;101244.53;10431962;28;20049;-77
2022/08/05 01:01:49;;;;;;;37.53;19.50;;;;;;;15.78;100.00;101230.56;10399527;28;20120;-78
2022/08/05 01:06:50;;;;;;;33.80;21.25;;;;;;;15.80;100.00;101226.22;10397205;28;20490;-76
2022/08/05 01:11:54;;;;;;;25.42;17.15;;;;;;;15.97;100.00;101210.94;10407177;28;20044;-77
2022/08/05 01:17:15;;;;;;;32.90;18.20;;;;;;;15.94;100.00;101231.97;10375255;28;20398;-76
2022/08/05 01:22:50;;;;;;;28.35;18.42;;;;;;;16.03;100.00;101256.00;10363663;28;20049;-76
2022/08/05 01:28:08;;;;;;;28.60;18.13;;;;;;;16.14;100.00;101288.03;10403979;28;20041;-76
2022/08/05 01:33:08;;;;;;;26.48;20.77;;;;;;;16.24;100.00;101310.34;10406129;28;20033;-76
2022/08/05 01:38:09;;;;;;;30.58;19.42;;;;;;;16.33;100.00;101355.53;10385096;28;20469;-76
2022/08/05 01:43:09;;;;;;;27.13;17.02;;;;;;;16.38;100.00;101380.34;10404361;28;20091;-76
2022/08/05 01:48:10;;;;;;;29.60;18.85;;;;;;;16.41;100.00;101355.78;10404326;28;20116;-77
2022/08/05 01:53:11;;;;;;;32.88;19.83;;;;;;;16.39;100.00;101365.41;10403482;28;20083;-78
2022/08/05 01:58:12;;;;;;;32.88;19.75;;;;;;;16.41;100.00;101390.13;10403687;28;20037;-77
2022/08/05 02:03:30;;;;;;;25.60;18.52;;;;;;;16.32;100.00;101315.88;10388628;28;20036;-78
2022/08/05 02:08:31;;;;;;;35.33;20.15;;;;;;;16.31;100.00;101278.00;10363983;28;20046;-77
2022/08/05 02:13:53;;;;;;;29.45;17.77;;;;;;;16.34;100.00;101251.66;10330401;28;20041;-77
2022/08/05 02:19:07;;;;;;;28.80;20.60;;;;;;;16.55;100.00;101218.81;10403377;28;20099;-77
2022/08/05 02:24:09;;;;;;;30.83;20.98;;;;;;;16.47;100.00;101226.53;10402539;28;20034;-78
2022/08/05 02:29:11;;;;;;;29.08;23.15;;;;;;;16.59;100.00;101211.03;10405995;28;20037;-77
2022/08/05 02:34:11;;;;;;;36.25;20.88;;;;;;;16.36;100.00;101233.25;10386314;28;20103;-78
2022/08/05 02:39:12;;;;;;;33.60;22.05;;;;;;;16.43;100.00;101222.88;10385674;28;20068;-77
2022/08/05 02:44:12;;;;;;;35.22;24.90;;;;;;;16.29;100.00;101292.88;10386394;28;20482;-77
2022/08/05 02:49:14;;;;;;;37.78;24.48;;;;;;;16.31;100.00;101266.53;10403482;28;20041;-77
2022/08/05 02:54:14;;;;;;;37.33;25.07;;;;;;;16.24;100.00;101260.16;10386061;28;20037;-77
2022/08/05 02:59:15;;;;;;;39.92;25.27;;;;;;;16.28;100.00;101267.31;10385204;28;20026;-76
2022/08/05 03:04:15;;;;;;;45.92;26.75;;;;;;;16.32;100.00;101271.84;10402155;28;20034;-76
2022/08/05 03:09:16;;;;;;;37.92;23.80;;;;;;;16.38;100.00;101265.88;10383576;28;20053;-76
2022/08/05 03:14:16;;;;;;;42.03;28.67;;;;;;;16.43;100.00;101272.19;10383670;28;20069;-77
2022/08/05 03:19:17;;;;;;;41.90;27.02;;;;;;;16.45;100.00;101278.41;10383522;28;20060;-76
2022/08/05 03:24:18;;;;;;;37.42;23.00;;;;;;;16.42;100.00;101276.56;10401713;28;20145;-76
2022/08/05 03:29:18;;;;;;;42.80;30.23;;;;;;;16.43;100.00;101283.66;10383458;28;20029;-76
2022/08/05 03:34:19;;;;;;;38.53;25.35;;;;;;;16.50;100.00;101266.25;10377017;28;20124;-77
2022/08/05 03:39:19;;;;;;;47.03;29.58;;;;;;;16.58;100.00;101255.88;10399628;28;20045;-78
2022/08/05 03:44:20;;;;;;;52.53;31.65;;;;;;;16.56;100.00;101263.78;10381422;28;20034;-76
2022/08/05 03:49:20;;;;;;;50.95;35.05;;;;;;;16.61;100.00;101260.38;10399080;28;20046;-76
2022/08/05 03:54:42;;;;;;;52.30;34.00;;;;;;;16.65;100.00;101256.97;10382088;28;20371;-77
2022/08/05 03:59:50;;;;;;;49.67;29.73;;;;;;;16.66;100.00;101237.63;10366448;28;20048;-76
2022/08/05 04:04:51;;;;;;;47.00;30.38;;;;;;;16.73;100.00;101235.19;10390966;28;20404;-76
2022/08/05 04:09:52;;;;;;;48.83;31.88;;;;;;;16.74;100.00;101244.03;10421376;28;20043;-75
2022/08/05 04:14:53;;;;;;;45.27;30.13;;;;;;;16.73;100.00;101236.94;10404800;28;20041;-77
2022/08/05 04:19:53;;;;;;;48.88;30.02;;;;;;;16.79;100.00;101220.34;10408752;28;20034;-76
2022/08/05 04:24:54;;;;;;;50.60;29.30;;;;;;;16.78;100.00;101240.63;10396791;28;20124;-76
2022/08/05 04:29:54;;;;;;;41.78;29.10;;;;;;;16.71;100.00;101262.44;10399646;28;20541;-77
2022/08/05 04:34:55;;;;;;;50.60;31.83;;;;;;;16.59;100.00;101274.44;10397231;28;20041;-76
2022/08/05 04:39:55;;;;;;;48.17;31.88;;;;;;;16.57;100.00;101285.81;10364691;28;20053;-76
2022/08/05 04:44:56;;;;;;;46.78;30.60;;;;;;;16.57;100.00;101267.31;10398125;28;20157;-77
2022/08/05 04:49:57;;;;;;;46.58;30.35;;;;;;;16.58;100.00;101277.03;10365537;28;20044;-79
2022/08/05 04:54:57;;;;;;;37.80;26.95;;;;;;;16.49;100.00;101276.75;10397509;28;20167;-76
2022/08/05 04:59:58;;;;;;;31.55;21.27;;;;;;;16.48;100.00;101277.59;10397697;28;20087;-76
2022/08/05 05:04:58;;;;;;;20.95;15.82;;;;;;;16.45;100.00;101275.78;10399009;28;20087;-77
2022/08/05 05:10:03;;;;;;;19.35;13.68;;;;;;;16.41;100.00;101265.97;10378953;28;20048;-77
2022/08/05 05:15:04;;;;;;;19.38;13.30;;;;;;;16.30;100.00;101278.84;10380593;28;20037;-77
2022/08/05 05:20:06;;;;;;;20.27;12.73;;;;;;;16.15;100.00;101282.78;10400285;28;20045;-76
2022/08/05 05:25:07;;;;;;;18.00;11.20;;;;;;;16.08;100.00;101296.66;10356587;28;20496;-77
2022/08/05 05:30:10;;;;;;;13.50;10.68;;;;;;;15.91;100.00;101326.88;10369373;28;20103;-76
2022/08/05 05:35:11;;;;;;;19.23;11.48;;;;;;;15.94;100.00;101309.41;10388338;28;20034;-77
2022/08/05 05:40:16;;;;;;;12.10;9.47;;;;;;;15.92;100.00;101319.03;10413418;28;20133;-77
2022/08/05 05:45:17;;;;;;;15.68;9.63;;;;;;;15.82;100.00;101322.19;10368648;28;20033;-80
2022/08/05 05:50:18;;;;;;;15.35;8.05;;;;;;;15.81;100.00;101305.44;10384976;28;20045;-77
2022/08/05 05:55:19;;;;;;;15.57;8.05;;;;;;;15.81;100.00;101302.78;10370877;28;20083;-77
2022/08/05 06:00:20;;;;;;;13.52;8.45;;;;;;;15.77;100.00;101315.84;10387891;28;20596;-77
2022/08/05 06:05:20;;;;;;;14.68;8.98;;;;;;;15.65;100.00;101338.34;10394751;28;20651;-76
2022/08/05 06:10:21;;;;;;;23.98;11.82;;;;;;;15.52;100.00;101346.66;10408354;28;20120;-78
2022/08/05 06:15:21;;;;;;;12.00;8.38;;;;;;;15.44;100.00;101350.78;10410239;28;20278;-80
2022/08/05 06:20:22;;;;;;;18.00;10.85;;;;;;;15.33;100.00;101358.28;10424029;28;20049;-79
2022/08/05 06:25:22;;;;;;;12.85;9.50;;;;;;;15.40;100.00;101361.22;10404663;28;20527;-78
2022/08/05 06:30:25;;;;;;;15.43;10.52;;;;;;;15.35;100.00;101382.97;10371534;28;20045;-78
2022/08/05 06:35:26;;;;;;;19.52;11.27;;;;;;;15.46;100.00;101379.00;10425892;28;20405;-79
2022/08/05 06:40:26;;;;;;;16.88;12.68;;;;;;;15.49;100.00;101386.13;10424486;28;20132;-79
2022/08/05 06:45:27;;;;;;;14.82;9.95;;;;;;;15.36;100.00;101404.16;10426192;28;20045;-79
2022/08/05 06:50:27;;;;;;;13.95;9.20;;;;;;;15.26;100.00;101413.44;10426486;28;20128;-78
2022/08/05 06:55:28;;;;;;;15.50;9.95;;;;;;;15.22;100.00;101405.38;10423819;28;20120;-77
2022/08/05 07:00:30;;;;;;;14.75;11.02;;;;;;;15.19;100.00;101413.19;10425454;28;20033;-77
2022/08/05 07:05:30;;;;;;;15.18;12.13;;;;;;;15.34;100.00;101410.19;10442789;28;20044;-77
2022/08/05 07:10:31;;;;;;;18.83;14.02;;;;;;;15.45;100.00;101413.25;10418848;28;20121;-78
2022/08/05 07:20:51;;;;;;;21.10;13.70;;;;;;;15.58;100.00;101415.47;10441056;28;20041;-80
2022/08/05 07:25:52;;;;;;;19.95;14.35;;;;;;;15.86;100.00;101430.53;10405440;28;20037;-80
2022/08/05 07:30:52;;;;;;;22.90;17.02;;;;;;;16.06;100.00;101427.72;10423762;28;20045;-81
2022/08/05 07:35:55;;;;;;;19.73;16.30;;;;;;;16.30;100.00;101447.88;10406443;28;20097;-80
2022/08/05 07:40:55;;;;;;;;;;;;;;;16.47;100.00;101466.03;10423845;28;20033;-80
2022/08/05 07:45:56;;;;;;;19.98;13.20;;;;;;;16.66;100.00;101460.50;10441128;28;19916;-80
2022/08/05 07:50:56;;;;;;;21.25;12.63;;;;;;;16.98;100.00;101468.56;10389922;28;20033;-76
2022/08/05 07:55:57;;;;;;;16.95;12.23;;;;;;;17.10;100.00;101483.03;10422679;28;20116;-79
2022/08/05 08:00:57;;;;;;;15.88;11.20;;;;;;;17.45;99.39;101483.19;10423779;28;20049;-77
2022/08/05 08:05:58;;;;;;;13.48;10.95;;;;;;;18.01;94.05;101480.38;10423314;28;20060;-76
2022/08/05 08:10:59;;;;;;;13.02;9.50;;;;;;;18.66;92.22;101478.44;10439924;28;20043;-76
2022/08/05 08:15:59;;;;;;;18.60;6.17;;;;;;;19.21;87.05;101481.50;10439630;28;20086;-76
2022/08/05 08:21:00;;;;;;;15.63;5.53;;;;;;;19.92;84.76;101484.72;10418314;28;20485;-77
2022/08/05 08:26:00;;;;;;;13.15;6.22;;;;;;;21.75;76.63;101489.28;10422796;28;20053;-78
2022/08/05 08:31:01;;;;;;;10.57;5.30;;;;;;;21.55;71.36;101487.25;10420285;28;20384;-80
2022/08/05 08:36:02;;;;;;;12.93;4.80;;;;;;;21.52;73.51;101489.88;10421502;28;20064;-78
2022/08/05 08:41:07;;;;;;;9.07;4.30;;;;;;;22.35;72.06;101488.06;10420960;28;20124;-79
2022/08/05 08:46:07;;;;;;;8.30;5.88;;;;;;;21.91;70.97;101495.66;10404863;28;20268;-80
2022/08/05 08:51:08;;;;;;;13.80;6.73;;;;;;;21.12;71.50;101503.53;10411599;28;20493;-78
2022/08/05 08:56:09;;;;;;;9.70;5.20;;;;;;;20.26;72.77;101519.00;10393346;28;20039;-78
2022/08/05 09:01:10;;;;;;;8.50;6.87;;;;;;;19.50;79.76;101536.97;10441980;28;20045;-79
2022/08/05 09:06:10;;;;;;;10.13;7.38;;;;;;;19.22;79.90;101546.06;10404676;28;20102;-79
2022/08/05 09:11:12;;;;;;;11.85;8.15;;;;;;;19.35;82.81;101558.75;10429887;28;20037;-77
2022/08/05 09:16:12;;;;;;;12.48;10.43;;;;;;;19.71;82.18;101558.63;10428908;28;20493;-77
2022/08/05 09:21:13;;;;;;;29.88;16.63;;;;;;;19.83;82.99;101569.50;10424391;28;20048;-77
2022/08/05 09:26:18;;;;;;;22.35;13.35;;;;;;;20.30;82.47;101573.09;10429621;28;20034;-77
2022/08/05 09:31:18;;;;;;;13.50;9.50;;;;;;;21.28;76.21;101575.63;10429805;28;20036;-79
2022/08/05 09:36:19;;;;;;;13.88;10.25;;;;;;;21.40;72.01;101570.47;10427797;28;20124;-79
2022/08/05 09:41:19;;;;;;;24.37;10.27;;;;;;;22.36;66.81;101568.09;10428601;28;20029;-79
2022/08/05 09:46:31;;;;;;;14.73;9.03;;;;;;;22.69;66.13;101574.66;10427550;28;20110;-78
2022/08/05 09:51:38;;;;;;;13.35;10.10;;;;;;;21.89;67.79;101581.81;10428249;28;20381;-79
2022/08/05 09:56:38;;;;;;;15.82;10.52;;;;;;;22.44;68.30;101576.16;10444453;28;20033;-80
2022/08/05 10:01:42;;;;;;;13.40;10.13;;;;;;;22.56;64.22;101580.75;10444982;28;20400;-78
2022/08/05 10:06:55;;;;;;;10.00;8.73;;;;;;;21.75;66.12;101584.28;10409332;28;20171;-77
2022/08/05 10:12:09;;;;;;;12.52;9.48;;;;;;;20.20;74.19;101601.28;10410844;28;20045;-78
2022/08/05 10:17:13;;;;;;;14.10;11.80;;;;;;;19.14;81.48;101609.59;10426370;28;20036;-78
2022/08/05 10:22:14;;;;;;;11.80;9.57;;;;;;;18.83;84.05;101606.16;10426932;28;20045;-81
2022/08/05 10:27:14;;;;;;;17.23;12.70;;;;;;;18.86;89.72;101615.91;10424371;28;20059;-80
2022/08/05 10:32:15;;;;;;;22.13;13.18;;;;;;;19.32;86.70;101609.09;10424047;28;20033;-78
2022/08/05 10:37:15;;;;;;;19.58;9.85;;;;;;;20.51;81.70;101597.41;10402472;28;20376;-79
2022/08/05 10:42:20;;;;;;;12.32;9.45;;;;;;;24.85;64.51;101593.47;10386286;28;20068;-79
2022/08/05 10:47:29;;;;;;;9.70;7.10;;;;;;;28.97;48.32;101591.72;10386001;28;20117;-80
2022/08/05 10:52:59;;;;;;;10.93;7.63;;;;;;;29.18;48.36;101603.00;10387070;28;20042;-78
2022/08/05 10:58:09;;;;;;;13.85;7.95;;;;;;;30.91;43.17;101601.06;10401730;28;20068;-81
2022/08/05 11:03:11;;;;;;;9.52;7.22;;;;;;;29.86;43.48;101607.06;10383797;28;20489;-80
2022/08/05 11:08:11;;;;;;;8.95;6.53;;;;;;;29.85;42.53;101601.72;10400819;28;20037;-80
2022/08/05 11:13:37;;;;;;;8.70;6.53;;;;;;;29.49;44.28;101599.75;10400540;28;20114;-80
2022/08/05 11:18:37;;;;;;;6.60;5.90;;;;;;;27.87;45.85;101608.59;10385761;28;20048;-80
2022/08/05 11:23:42;;;;;;;8.97;7.13;;;;;;;27.95;47.96;101591.47;10400438;28;20120;-80
2022/08/05 11:28:53;;;;;;;9.45;5.85;;;;;;;29.47;43.45;101595.31;10401287;28;20099;-80
2022/08/05 11:33:55;;;;;;;12.00;7.50;;;;;;;27.65;47.62;101593.63;10388372;28;20389;-79
2022/08/05 11:38:56;;;;;;;8.52;5.95;;;;;;;24.22;56.81;101629.88;10408721;28;20041;-80
2022/08/05 11:44:00;;;;;;;8.03;3.97;;;;;;;21.55;66.46;101635.47;10407335;28;20041;-79
2022/08/05 11:49:02;;;;;;;9.02;3.97;;;;;;;19.93;73.98;101648.56;10399848;28;20398;-79
2022/08/05 11:54:02;;;;;;;6.40;4.00;;;;;;;19.40;78.98;101650.84;10384125;28;20033;-79
2022/08/05 11:59:03;;;;;;;8.82;3.75;;;;;;;19.44;80.25;101660.69;10401878;28;20029;-78
2022/08/05 12:04:03;;;;;;;8.85;3.75;;;;;;;20.12;78.96;101664.88;10401171;28;20061;-78
2022/08/05 12:09:05;;;;;;;5.72;2.78;;;;;;;21.40;72.43;101657.47;10382732;28;20112;-78
2022/08/05 12:14:07;;;;;;;;;;;;;;;23.13;62.01;101647.94;10400935;28;20121;-80
2022/08/05 12:19:10;;;;;;;4.55;1.92;;;;;;;26.33;51.00;101650.25;10392550;28;19918;-79
2022/08/05 12:24:16;;;;;;;7.30;2.45;;;;;;;27.68;44.34;101652.75;10363886;28;20083;-79
2022/08/05 12:29:18;;;;;;;4.97;2.03;;;;;;;29.64;44.12;101654.28;10368001;28;20033;-81
2022/08/05 12:34:19;;;;;;;3.55;2.03;;;;;;;29.97;42.93;101659.91;10373240;28;20064;-81
2022/08/05 12:39:20;;;;;;;;;;;;;;;28.46;39.90;101676.00;10373191;28;20508;-78
2022/08/05 12:44:20;;;;;;;11.20;2.40;;;;;;;25.20;50.58;101684.47;10389399;28;19924;-78
2022/08/05 12:49:21;;;;;;;3.93;1.50;;;;;;;24.71;49.83;101692.44;10373800;28;20064;-77
2022/08/05 12:54:25;;;;;;;5.90;2.23;;;;;;;24.63;52.15;101703.13;10372825;28;20053;-77
2022/08/05 12:59:27;;;;;;;6.43;1.80;;;;;;;24.53;48.26;101698.66;10389923;28;20045;-79
2022/08/05 13:04:32;;;;;;;3.65;2.20;;;;;;;27.46;45.80;101695.06;10387934;28;20055;-78
2022/08/05 13:09:32;;;;;;;1.88;0.88;;;;;;;27.23;41.90;101709.59;10430595;28;20044;-77
2022/08/05 13:14:46;;;;;;;4.93;1.67;;;;;;;25.19;46.67;101712.16;10429160;28;20041;-78
2022/08/05 13:20:08;;;;;;;12.77;4.00;;;;;;;25.58;45.73;101716.63;10429922;28;20049;-79
2022/08/05 13:25:10;;;;;;;2.13;1.40;;;;;;;26.44;43.18;101710.13;10429342;28;20469;-80
2022/08/05 13:30:12;;;;;;;4.88;2.03;;;;;;;29.10;36.57;101710.94;10430288;28;20037;-77
2022/08/05 13:35:13;;;;;;;1.98;0.93;;;;;;;30.08;33.43;101698.38;10429043;28;20033;-79
2022/08/05 13:40:14;;;;;;;3.03;0.80;;;;;;;30.14;33.76;101713.56;10444922;28;20044;-79
2022/08/05 13:45:14;;;;;;;0.97;0.70;;;;;;;30.70;33.00;101728.59;10428834;28;20041;-79
2022/08/05 13:50:15;;;;;;;2.33;1.43;;;;;;;30.08;32.95;101735.28;10426399;28;20040;-79
2022/08/05 13:55:15;;;;;;;4.30;1.57;;;;;;;30.27;34.38;101731.28;10387151;28;20045;-80
2022/08/05 14:00:16;;;;;;;2.73;1.17;;;;;;;30.36;31.47;101740.09;10404438;28;20025;-79
2022/08/05 14:05:19;;;;;;;2.60;0.87;;;;;;;30.64;32.56;101744.94;10417243;28;20041;-79
2022/08/05 14:10:22;;;;;;;3.78;1.25;;;;;;;30.67;31.92;101744.84;10445621;28;20041;-78
2022/08/05 14:15:24;;;;;;;2.75;1.30;;;;;;;30.30;30.78;101752.81;10426685;28;20057;-78
2022/08/05 14:20:26;;;;;;;2.03;1.50;;;;;;;29.12;32.69;101767.50;10427934;28;20064;-79
2022/08/05 14:25:26;;;;;;;6.40;1.70;;;;;;;26.47;38.20;101778.97;10409869;28;20045;-79
2022/08/05 14:30:27;;;;;;;3.07;1.37;;;;;;;25.25;41.27;101778.22;10409383;28;20033;-78
2022/08/05 14:35:30;;;;;;;2.80;1.70;;;;;;;27.02;37.31;101776.91;10442797;28;20041;-78
2022/08/05 14:40:31;;;;;;;2.00;1.00;;;;;;;27.70;35.87;101779.09;10424306;28;20040;-77
2022/08/05 14:45:31;;;;;;;2.33;1.30;;;;;;;26.73;36.69;101784.22;10408810;28;20033;-77
2022/08/05 14:50:32;;;;;;;4.40;1.83;;;;;;;27.97;33.64;101780.63;10425686;28;20036;-77
2022/08/05 14:55:33;;;;;;;7.00;2.28;;;;;;;27.71;33.24;101780.88;10424720;28;20044;-78
2022/08/05 15:00:33;;;;;;;1.83;1.00;;;;;;;27.02;34.80;101801.09;10442536;28;20124;-78
2022/08/05 15:05:34;;;;;;;2.37;1.00;;;;;;;26.74;34.73;101795.84;10423489;28;20469;-78
2022/08/05 15:10:37;;;;;;;2.10;0.90;;;;;;;26.37;34.91;101800.47;10423971;28;20116;-77
2022/08/05 15:15:38;;;;;;;5.90;0.90;;;;;;;26.34;34.72;101797.81;10442155;28;20045;-78
2022/08/05 15:20:38;;;;;;;4.77;1.10;;;;;;;26.05;35.24;101814.84;10401073;28;20036;-78
2022/08/05 15:25:39;;;;;;;4.20;0.93;;;;;;;25.78;35.28;101805.06;10426587;28;20037;-78
2022/08/05 15:30:40;;;;;;;3.20;1.00;;;;;;;24.99;35.72;101797.84;10440855;28;20098;-78
2022/08/05 15:35:42;;;;;;;2.67;0.90;;;;;;;24.00;39.07;101816.94;10441239;28;20064;-77
2022/08/05 15:40:42;;;;;;;3.50;1.60;;;;;;;22.92;38.74;101807.91;10422357;28;20044;-77
2022/08/05 15:45:43;;;;;;;1.60;0.97;;;;;;;22.67;40.01;101815.63;10423424;28;20060;-77
2022/08/05 15:50:45;;;;;;;1.93;0.90;;;;;;;22.38;39.30;101810.75;10423388;28;20473;-77
2022/08/05 15:55:49;;;;;;;2.90;0.98;;;;;;;22.27;43.31;101813.28;10423486;28;20041;-78
2022/08/05 16:00:50;;;;;;;1.90;0.80;;;;;;;22.08;42.61;101828.09;10404591;28;20041;-77
2022/08/05 16:05:51;;;;;;;4.83;1.87;;;;;;;22.05;45.74;101828.06;10442162;28;20048;-77
2022/08/05 16:10:51;;;;;;;3.97;1.23;;;;;;;22.24;43.94;101837.25;10440643;28;20163;-77
2022/08/05 16:15:52;;;;;;;2.57;1.77;;;;;;;22.04;45.00;101844.94;10420864;28;20055;-77
2022/08/05 16:20:52;;;;;;;4.03;1.20;;;;;;;22.30;44.04;101832.00;10441169;28;20069;-77
2022/08/05 16:26:06;;;;;;;2.13;0.75;;;;;;;22.71;42.59;101830.78;10440928;28;20578;-77
2022/08/05 16:31:06;;;;;;;1.23;0.75;;;;;;;22.69;43.87;101843.22;10386895;28;20045;-77
2022/08/05 16:36:07;;;;;;;2.43;1.10;;;;;;;22.33;44.82;101852.47;10436977;28;20033;-78
2022/08/05 16:41:08;;;;;;;6.43;1.20;;;;;;;21.99;46.08;101861.75;10404832;28;20069;-78
2022/08/05 16:46:08;;;;;;;3.22;1.23;;;;;;;21.80;47.79;101878.28;10406902;28;20124;-77
2022/08/05 16:51:09;;;;;;;3.53;1.27;;;;;;;21.88;47.66;101884.66;10438833;28;20041;-77
2022/08/05 16:56:10;;;;;;;4.78;2.08;;;;;;;21.62;48.30;101893.06;10420349;28;20472;-77
2022/08/05 17:01:10;;;;;;;2.03;0.83;;;;;;;21.11;48.37;101892.97;10366231;28;20503;-77
2022/08/05 17:06:11;;;;;;;1.30;1.10;;;;;;;21.00;48.50;101902.50;10436828;28;20126;-77
2022/08/05 17:11:11;;;;;;;2.83;1.52;;;;;;;20.69;48.42;101909.78;10395879;28;20048;-77
2022/08/05 17:16:12;;;;;;;2.00;0.82;;;;;;;20.34;51.06;101908.13;10441950;28;20175;-77
2022/08/05 17:21:12;;;;;;;1.25;0.60;;;;;;;20.05;49.20;101916.28;10410349;28;20171;-77
2022/08/05 17:26:14;;;;;;;3.42;1.08;;;;;;;19.77;50.54;101923.50;10444364;28;20037;-77
2022/08/05 17:31:14;;;;;;;2.13;1.08;;;;;;;19.43;49.79;101921.69;10446959;28;20094;-77
2022/08/05 17:36:15;;;;;;;3.33;1.05;;;;;;;18.98;52.00;101929.25;10447013;28;20037;-77
2022/08/05 17:41:15;;;;;;;1.17;0.60;;;;;;;18.45;54.14;101937.34;10443519;28;20037;-76
2022/08/05 17:46:16;;;;;;;2.00;0.95;;;;;;;18.20;55.22;101955.97;10445014;28;20493;-77
2022/08/05 17:51:17;;;;;;;17.30;9.23;;;;;;;18.23;55.85;101960.47;10446169;28;20041;-77
2022/08/05 17:56:18;;;;;;;3.15;1.20;;;;;;;18.42;53.80;101972.56;10442795;28;20072;-77
2022/08/05 18:01:18;;;;;;;1.20;0.82;;;;;;;18.40;53.90;101976.91;10445497;28;20119;-78
2022/08/05 18:06:19;;;;;;;2.70;1.88;;;;;;;18.27;54.24;101987.97;10426909;28;20560;-77
2022/08/05 18:11:20;;;;;;;5.57;0.80;;;;;;;18.09;55.54;101996.19;10444900;28;20057;-77
2022/08/05 18:16:20;;;;;;;11.65;1.38;;;;;;;18.01;56.11;102006.50;10427261;28;20125;-77
2022/08/05 18:21:21;;;;;;;7.45;0.70;;;;;;;17.86;55.78;102006.84;10442923;28;20120;-77
2022/08/05 18:26:22;;;;;;;2.90;1.15;;;;;;;17.60;57.27;102012.09;10424372;28;20438;-77
2022/08/05 18:31:22;;;;;;;3.33;1.00;;;;;;;17.26;59.49;102032.00;10424324;28;20060;-77
2022/08/05 18:36:23;;;;;;;1.60;0.82;;;;;;;17.17;60.10;102025.50;10425901;28;20127;-77
2022/08/05 18:41:23;;;;;;;1.25;0.70;;;;;;;16.88;60.26;102030.50;10425858;28;20568;-77
2022/08/05 18:46:26;;;;;;;3.92;1.00;;;;;;;16.65;62.25;102041.88;10426721;28;20131;-77
2022/08/05 18:56:48;;;;;;;5.18;1.67;;;;;;;16.12;64.86;102050.22;10442187;28;20029;-77
2022/08/05 19:01:49;;;;;;;2.00;1.10;;;;;;;15.86;64.98;102061.38;10444185;28;20095;-77
2022/08/05 19:06:49;;;;;;;5.95;2.00;;;;;;;15.62;66.00;102060.28;10424029;28;20064;-77
2022/08/05 19:11:50;;;;;;;2.25;1.23;;;;;;;15.53;66.64;102077.47;10423573;28;20040;-77
2022/08/05 19:16:50;;;;;;;2.30;1.00;;;;;;;15.40;66.04;102091.84;10442055;28;20041;-77
2022/08/05 19:21:54;;;;;;;4.18;1.55;;;;;;;15.17;66.58;102103.03;10437014;28;20123;-77
2022/08/05 19:26:55;;;;;;;4.93;1.77;;;;;;;15.03;67.71;102102.34;10439621;28;20040;-77
2022/08/05 19:31:55;;;;;;;5.47;3.55;;;;;;;14.77;68.81;102123.97;10423278;28;20044;-77
2022/08/05 19:36:56;;;;;;;5.60;1.15;;;;;;;14.70;68.27;102129.75;10399257;28;20543;-76
2022/08/05 19:41:56;;;;;;;5.57;1.45;;;;;;;14.70;68.03;102139.34;10400994;28;20034;-77
2022/08/05 19:46:57;;;;;;;4.00;1.80;;;;;;;14.57;68.69;102146.59;10399658;28;20045;-77
2022/08/05 19:51:59;;;;;;;2.28;1.20;;;;;;;14.32;69.30;102147.06;10385242;28;20124;-78
2022/08/05 19:57:04;;;;;;;3.58;2.03;;;;;;;14.14;70.36;102161.06;10399405;28;20125;-78
2022/08/05 20:02:05;;;;;;;2.97;1.70;;;;;;;13.90;71.40;102174.69;10399689;28;20041;-78
2022/08/05 20:07:05;;;;;;;2.58;1.73;;;;;;;13.77;72.11;102178.38;10396477;28;20519;-77
2022/08/05 20:12:06;;;;;;;6.15;2.30;;;;;;;13.64;70.90;102170.59;10397648;28;20042;-77
2022/08/05 20:17:09;;;;;;;3.47;1.25;;;;;;;13.62;70.03;102180.13;10416343;28;20460;-77
2022/08/05 20:22:10;;;;;;;2.13;1.15;;;;;;;13.69;69.29;102184.03;10398382;28;20124;-77
2022/08/05 20:27:10;;;;;;;4.20;1.23;;;;;;;13.56;70.09;102185.06;10396307;28;20037;-77
2022/08/05 20:32:11;;;;;;;1.77;1.15;;;;;;;13.28;71.96;102189.63;10382280;28;20453;-77
2022/08/05 20:37:11;;;;;;;3.40;1.55;;;;;;;12.98;73.70;102192.28;10398322;28;20493;-77
2022/08/05 20:42:13;;;;;;;5.20;2.60;;;;;;;12.83;74.31;102194.00;10384114;28;20570;-77
2022/08/05 20:47:15;;;;;;;3.65;2.20;;;;;;;12.75;74.48;102204.94;10381823;28;20393;-76
2022/08/05 20:52:15;;;;;;;3.50;2.30;;;;;;;12.61;75.43;102222.50;10402484;28;20037;-76
2022/08/05 20:57:16;;;;;;;4.90;1.98;;;;;;;12.52;74.69;102221.03;10405574;28;20037;-76
2022/08/05 21:02:16;;;;;;;5.80;2.45;;;;;;;12.36;75.60;102233.22;10395841;28;20040;-76
2022/08/05 21:07:17;;;;;;;5.00;2.40;;;;;;;12.12;77.21;102232.56;10401389;28;20041;-75
2022/08/05 21:12:18;;;;;;;4.55;2.03;;;;;;;11.92;78.28;102226.94;10388665;28;20060;-75
2022/08/05 21:17:19;;;;;;;4.28;1.85;;;;;;;11.69;78.71;102226.34;10403592;28;20041;-76
2022/08/05 21:22:20;;;;;;;2.95;2.20;;;;;;;11.51;80.67;102235.63;10397493;28;20188;-75
2022/08/05 21:27:20;;;;;;;6.55;2.22;;;;;;;11.42;82.16;102242.09;10402204;28;20487;-75
2022/08/05 21:32:25;;;;;;;5.00;2.78;;;;;;;11.34;82.67;102247.66;10401078;28;20048;-75
2022/08/05 21:37:25;;;;;;;7.13;2.00;;;;;;;11.20;82.29;102258.13;10387227;28;20041;-75
2022/08/05 21:42:26;;;;;;;4.25;1.90;;;;;;;11.02;82.82;102269.16;10405827;28;20048;-75
2022/08/05 21:47:26;;;;;;;3.78;2.28;;;;;;;10.87;84.24;102275.97;10403827;28;20969;-76
2022/08/05 21:52:27;;;;;;;9.23;2.22;;;;;;;10.76;85.22;102272.59;10404142;28;20106;-75
2022/08/05 21:57:27;;;;;;;6.60;3.08;;;;;;;10.62;86.11;102273.34;10385303;28;20041;-76
2022/08/05 22:02:28;;;;;;;6.72;2.08;;;;;;;10.39;87.27;102275.22;10403755;28;20030;-76
2022/08/05 22:07:28;;;;;;;8.57;3.75;;;;;;;10.23;89.69;102273.22;10402591;28;20037;-75
2022/08/05 22:12:30;;;;;;;6.30;2.90;;;;;;;10.06;89.92;102282.47;10404844;28;20749;-75
2022/08/05 22:17:31;;;;;;;5.13;2.50;;;;;;;9.97;91.47;102283.63;10403764;28;20064;-75
2022/08/05 22:27:41;;;;;;;4.55;2.80;;;;;;;9.92;92.03;102287.59;10404733;28;20130;-75
2022/08/05 22:27:52;;;;;;;5.32;2.65;;;;;;;9.82;92.34;102295.56;10390322;28;20382;-75
2022/08/05 22:32:53;;;;;;;4.78;2.67;;;;;;;9.66;92.35;102306.63;10404863;28;20080;-75
2022/08/05 22:37:53;;;;;;;7.45;2.70;;;;;;;9.50;93.79;102309.75;10401375;28;20116;-75
2022/08/05 22:42:54;;;;;;;7.22;3.17;;;;;;;9.22;93.40;102311.22;10403962;28;20118;-75
2022/08/05 22:47:54;;;;;;;5.68;2.80;;;;;;;9.19;96.16;102329.28;10401708;28;20064;-75
2022/08/05 22:52:55;;;;;;;5.60;2.92;;;;;;;9.32;97.31;102333.72;10386339;28;20029;-75
2022/08/05 22:57:55;;;;;;;5.03;3.28;;;;;;;9.27;96.67;102340.28;10403161;28;20128;-75
2022/08/05 23:02:56;;;;;;;8.95;3.65;;;;;;;9.22;97.41;102342.56;10403372;28;20037;-76